createdAt,value
2022-08-04T00:00:58.214Z,1.80
2022-08-04T00:03:29.827Z,1.60
2022-08-04T00:06:02.001Z,1.53
2022-08-04T00:08:35.872Z,1.57
2022-08-04T00:11:04.202Z,1.60
2022-08-04T00:13:34.633Z,1.37
2022-08-04T00:16:06.144Z,1.40
2022-08-04T00:18:36.507Z,1.30
2022-08-04T00:21:06.817Z,1.33
2022-08-04T00:24:11.574Z,1.40
2022-08-04T00:26:26.235Z,1.40
2022-08-04T00:28:56.524Z,1.40
2022-08-04T00:31:53.669Z,1.57
2022-08-04T00:34:14.132Z,1.40
2022-08-04T00:36:42.567Z,1.27
2022-08-04T00:39:13.184Z,1.53
2022-08-04T00:41:56.093Z,1.20
2022-08-04T00:44:31.745Z,1.50
2022-08-04T00:47:06.681Z,1.53
2022-08-04T00:49:43.958Z,1.43
2022-08-04T00:52:33.421Z,1.57
2022-08-04T00:55:09.231Z,1.30
2022-08-04T00:57:44.580Z,1.60
2022-08-04T01:00:15.156Z,1.73
2022-08-04T01:02:50.193Z,1.67
2022-08-04T01:05:22.728Z,1.40
2022-08-04T01:07:57.540Z,1.20
2022-08-04T01:10:31.548Z,1.57
2022-08-04T01:13:15.286Z,1.33
2022-08-04T01:15:59.291Z,1.50
2022-08-04T01:18:32.409Z,1.73
2022-08-04T01:21:07.485Z,1.57
2022-08-04T01:23:54.408Z,1.70
2022-08-04T01:26:43.240Z,1.60
2022-08-04T01:29:24.768Z,1.50
2022-08-04T01:32:02.943Z,1.50
2022-08-04T01:34:32.465Z,1.50
2022-08-04T01:37:01.816Z,1.50
2022-08-04T01:39:43.906Z,1.60
2022-08-04T01:42:12.827Z,1.50
2022-08-04T01:45:02.176Z,1.60
2022-08-04T01:47:31.514Z,1.70
2022-08-04T01:50:03.804Z,1.80
2022-08-04T01:52:33.431Z,1.83
2022-08-04T01:55:02.873Z,1.60
2022-08-04T01:57:37.883Z,1.47
2022-08-04T02:00:09.811Z,1.40
2022-08-04T02:02:38.170Z,1.63
2022-08-04T02:05:06.931Z,1.73
2022-08-04T02:07:42.208Z,1.63
2022-08-04T02:10:15.163Z,1.83
2022-08-04T02:12:50.749Z,1.60
2022-08-04T02:15:26.932Z,1.60
2022-08-04T02:17:58.912Z,1.70
2022-08-04T02:20:31.518Z,1.50
2022-08-04T02:23:00.885Z,1.80
2022-08-04T02:25:30.489Z,1.67
2022-08-04T02:28:06.859Z,1.60
2022-08-04T02:30:42.361Z,1.50
2022-08-04T02:33:11.688Z,2.07
2022-08-04T02:35:40.755Z,1.53
2022-08-04T02:38:13.761Z,1.70
2022-08-04T02:40:42.896Z,1.90
2022-08-04T02:43:11.881Z,1.70
2022-08-04T02:45:43.579Z,1.80
2022-08-04T02:48:30.980Z,2.00
2022-08-04T02:50:59.873Z,1.80
2022-08-04T02:53:28.792Z,1.70
2022-08-04T02:55:57.820Z,1.77
2022-08-04T02:58:29.000Z,1.90
2022-08-04T03:00:58.581Z,2.00
2022-08-04T03:03:32.528Z,1.90
2022-08-04T03:06:18.541Z,1.90
2022-08-04T03:08:57.192Z,1.90
2022-08-04T03:11:40.448Z,1.83
2022-08-04T03:14:21.001Z,1.87
2022-08-04T03:16:59.462Z,2.00
2022-08-04T03:19:43.412Z,2.00
2022-08-04T03:22:49.139Z,2.20
2022-08-04T03:25:56.676Z,2.00
2022-08-04T03:28:56.096Z,1.80
2022-08-04T03:31:40.968Z,1.80
2022-08-04T03:34:22.692Z,2.00
2022-08-04T03:37:03.593Z,2.50
2022-08-04T03:40:10.594Z,2.30
2022-08-04T03:42:53.698Z,1.77
2022-08-04T03:45:37.539Z,2.13
2022-08-04T03:48:21.496Z,1.83
2022-08-04T03:51:35.293Z,1.90
2022-08-04T03:54:22.205Z,2.20
2022-08-04T03:57:09.745Z,2.20
2022-08-04T03:59:49.083Z,1.83
2022-08-04T04:02:32.306Z,1.87
2022-08-04T04:05:06.216Z,2.20
2022-08-04T04:07:54.300Z,1.57
2022-08-04T04:10:34.735Z,2.00
2022-08-04T04:13:17.817Z,1.90
2022-08-04T04:15:52.833Z,2.43
2022-08-04T04:18:34.012Z,2.07
2022-08-04T04:21:12.864Z,1.97
2022-08-04T04:23:54.135Z,2.10
2022-08-04T04:26:31.860Z,1.90
2022-08-04T04:29:04.643Z,1.97
2022-08-04T04:31:39.910Z,2.03
2022-08-04T04:34:10.769Z,1.90
2022-08-04T04:36:46.084Z,1.97
2022-08-04T04:39:22.130Z,1.80
2022-08-04T04:41:57.731Z,2.27
2022-08-04T04:44:41.592Z,2.07
2022-08-04T04:47:13.412Z,2.37
2022-08-04T04:49:46.749Z,2.20
2022-08-04T04:52:17.445Z,2.30
2022-08-04T04:54:53.074Z,2.07
2022-08-04T04:57:49.225Z,2.07
2022-08-04T05:00:13.493Z,2.30
2022-08-04T05:02:51.040Z,2.10
2022-08-04T05:05:32.363Z,2.70
2022-08-04T05:08:43.127Z,2.50
2022-08-04T05:11:27.985Z,2.20
2022-08-04T05:14:38.230Z,2.10
2022-08-04T05:16:48.516Z,2.17
2022-08-04T05:19:23.506Z,2.00
2022-08-04T05:21:54.549Z,2.40
2022-08-04T05:24:24.134Z,2.33
2022-08-04T05:26:55.327Z,2.10
2022-08-04T05:29:30.894Z,2.40
2022-08-04T05:32:01.303Z,2.40
2022-08-04T05:34:30.997Z,2.33
2022-08-04T05:37:01.975Z,2.40
2022-08-04T05:39:34.271Z,2.47
2022-08-04T05:42:05.063Z,2.60
2022-08-04T05:44:36.576Z,2.47
2022-08-04T05:47:05.229Z,2.70
2022-08-04T05:49:34.709Z,2.63
2022-08-04T05:52:04.139Z,2.00
2022-08-04T05:54:33.162Z,2.50
2022-08-04T05:57:01.685Z,2.73
2022-08-04T05:59:32.650Z,2.40
2022-08-04T06:02:01.920Z,2.00
2022-08-04T06:04:32.983Z,2.30
2022-08-04T06:07:01.318Z,2.10
2022-08-04T06:09:29.668Z,2.13
2022-08-04T06:12:03.351Z,1.63
2022-08-04T06:14:37.530Z,1.63
2022-08-04T06:17:18.364Z,1.60
2022-08-04T06:20:19.339Z,1.63
2022-08-04T06:22:47.424Z,2.00
2022-08-04T06:25:17.780Z,1.40
2022-08-04T06:27:46.296Z,1.52
2022-08-04T06:30:19.223Z,1.42
2022-08-04T06:33:04.299Z,1.30
2022-08-04T06:35:33.560Z,1.45
2022-08-04T06:38:02.798Z,1.50
2022-08-04T06:40:33.906Z,1.50
2022-08-04T06:43:03.760Z,1.33
2022-08-04T06:45:34.529Z,1.10
2022-08-04T06:48:03.674Z,1.40
2022-08-04T06:51:29.426Z,1.20
2022-08-04T06:53:20.733Z,1.38
2022-08-04T06:55:49.867Z,1.50
2022-08-04T06:58:18.782Z,1.30
2022-08-04T07:00:49.167Z,1.20
2022-08-04T07:03:18.393Z,1.38
2022-08-04T07:05:48.420Z,1.40
2022-08-04T07:08:17.219Z,1.17
2022-08-04T07:10:46.796Z,1.20
2022-08-04T07:13:15.297Z,1.50
2022-08-04T07:15:45.807Z,1.50
2022-08-04T07:18:15.508Z,1.20
2022-08-04T07:20:44.281Z,1.50
2022-08-04T07:23:17.125Z,1.13
2022-08-04T07:25:59.782Z,1.50
2022-08-04T07:28:33.666Z,1.30
2022-08-04T07:31:03.934Z,1.40
2022-08-04T07:33:34.113Z,1.27
2022-08-04T07:36:09.294Z,1.25
2022-08-04T07:38:48.709Z,1.35
2022-08-04T07:41:37.991Z,1.40
2022-08-04T07:44:06.830Z,1.60
2022-08-04T07:46:35.147Z,1.50
2022-08-04T07:49:05.331Z,1.23
2022-08-04T07:51:35.232Z,1.23
2022-08-04T07:54:05.225Z,1.30
2022-08-04T07:56:34.338Z,1.42
2022-08-04T07:59:03.260Z,1.58
2022-08-04T08:01:31.902Z,1.58
2022-08-04T08:04:00.586Z,1.58
2022-08-04T08:06:34.734Z,1.70
2022-08-04T08:09:13.433Z,1.52
2022-08-04T08:12:36.767Z,1.50
2022-08-04T08:14:31.550Z,1.55
2022-08-04T08:17:01.395Z,1.50
2022-08-04T08:19:29.812Z,1.67
2022-08-04T08:22:00.874Z,1.48
2022-08-04T08:24:30.207Z,1.60
2022-08-04T08:26:58.538Z,1.52
2022-08-04T08:29:27.652Z,1.75
2022-08-04T08:32:01.420Z,1.40
2022-08-04T08:34:34.403Z,1.67
2022-08-04T08:37:06.620Z,1.45
2022-08-04T08:39:37.786Z,1.40
2022-08-04T08:45:48.701Z,1.52
2022-08-04T08:48:34.617Z,1.55
2022-08-04T08:51:17.709Z,1.60
2022-08-04T08:54:00.813Z,1.70
2022-08-04T08:56:36.179Z,1.65
2022-08-04T08:59:18.165Z,1.55
2022-08-04T09:01:54.849Z,1.50
2022-08-04T09:04:43.764Z,1.52
2022-08-04T09:07:28.355Z,1.25
2022-08-04T09:10:05.037Z,1.77
2022-08-04T09:12:35.721Z,1.65
2022-08-04T09:15:07.176Z,1.48
2022-08-04T09:17:43.447Z,1.55
2022-08-04T09:20:15.107Z,2.05
2022-08-04T09:22:46.677Z,2.00
2022-08-04T09:25:20.212Z,1.73
2022-08-04T09:27:53.049Z,1.85
2022-08-04T09:30:22.351Z,1.60
2022-08-04T09:32:59.072Z,2.05
2022-08-04T09:35:35.105Z,1.85
2022-08-04T09:38:07.498Z,1.70
2022-08-04T09:40:53.528Z,1.50
2022-08-04T09:43:58.895Z,1.92
2022-08-04T09:46:22.652Z,1.88
2022-08-04T09:48:54.975Z,2.58
2022-08-04T09:51:57.692Z,1.80
2022-08-04T09:54:30.955Z,2.00
2022-08-04T09:57:02.754Z,1.77
2022-08-04T09:59:37.955Z,1.80
2022-08-04T10:02:08.549Z,2.10
2022-08-04T10:04:38.345Z,2.30
2022-08-04T10:07:11.714Z,2.20
2022-08-04T10:09:46.734Z,2.15
2022-08-04T10:12:23.327Z,2.38
2022-08-04T10:14:55.905Z,2.40
2022-08-04T10:17:33.783Z,2.00
2022-08-04T10:20:05.995Z,2.30
2022-08-04T10:22:49.661Z,2.25
2022-08-04T10:26:03.182Z,2.28
2022-08-04T10:28:21.162Z,1.75
2022-08-04T10:30:51.644Z,2.22
2022-08-04T10:33:22.957Z,2.08
2022-08-04T10:35:53.293Z,2.10
2022-08-04T10:38:26.993Z,1.58
2022-08-04T10:41:00.442Z,1.98
2022-08-04T10:43:34.968Z,2.13
2022-08-04T10:46:08.350Z,1.92
2022-08-04T10:48:42.231Z,1.80
2022-08-04T10:51:20.635Z,2.08
2022-08-04T10:53:51.823Z,2.10
2022-08-04T10:56:24.091Z,2.47
2022-08-04T10:58:54.884Z,2.10
2022-08-04T11:01:50.713Z,2.50
2022-08-04T11:04:27.582Z,2.40
2022-08-04T11:06:56.998Z,2.00
2022-08-04T11:09:25.438Z,2.60
2022-08-04T11:12:00.129Z,2.17
2022-08-04T11:14:33.316Z,2.70
2022-08-04T11:17:06.913Z,2.63
2022-08-04T11:19:43.040Z,2.40
2022-08-04T11:22:17.159Z,2.40
2022-08-04T11:24:47.146Z,2.22
2022-08-04T11:27:16.959Z,2.47
2022-08-04T11:29:50.376Z,2.40
2022-08-04T11:32:21.855Z,2.13
2022-08-04T11:34:52.610Z,2.53
2022-08-04T11:37:25.289Z,2.60
2022-08-04T11:39:55.049Z,2.45
2022-08-04T11:42:25.087Z,2.15
2022-08-04T11:44:55.781Z,2.28
2022-08-04T11:47:30.234Z,2.45
2022-08-04T11:50:02.572Z,2.22
2022-08-04T11:52:32.299Z,2.00
2022-08-04T11:55:01.351Z,2.63
2022-08-04T11:57:35.770Z,2.42
2022-08-04T12:00:09.758Z,2.47
2022-08-04T12:02:54.865Z,2.15
2022-08-04T12:05:35.601Z,2.63
2022-08-04T12:08:12.536Z,2.45
2022-08-04T12:10:43.930Z,2.10
2022-08-04T12:13:20.614Z,2.55
2022-08-04T12:15:54.615Z,2.45
2022-08-04T12:18:25.475Z,2.22
2022-08-04T12:21:02.656Z,2.63
2022-08-04T12:23:32.535Z,2.20
2022-08-04T12:26:04.772Z,2.53
2022-08-04T12:28:59.552Z,2.10
2022-08-04T12:31:25.674Z,2.45
2022-08-04T12:34:05.263Z,2.28
2022-08-04T12:36:37.572Z,2.17
2022-08-04T12:39:10.389Z,2.42
2022-08-04T12:41:41.660Z,2.35
2022-08-04T12:44:33.353Z,2.60
2022-08-04T12:47:26.375Z,2.60
2022-08-04T12:50:00.977Z,2.50
2022-08-04T12:55:20.251Z,2.28
2022-08-04T12:57:49.629Z,2.40
2022-08-04T13:00:29.577Z,2.38
2022-08-04T13:03:02.785Z,2.20
2022-08-04T13:05:33.108Z,2.08
2022-08-04T13:08:02.946Z,2.10
2022-08-04T13:10:31.824Z,2.30
2022-08-04T13:13:02.536Z,2.75
2022-08-04T13:15:33.475Z,2.10
2022-08-04T13:18:16.160Z,1.98
2022-08-04T13:20:46.203Z,1.90
2022-08-04T13:23:21.883Z,1.90
2022-08-04T13:26:43.580Z,1.57
2022-08-04T13:28:42.694Z,2.03
2022-08-04T13:31:13.271Z,2.03
2022-08-04T13:33:46.461Z,1.70
2022-08-04T13:36:17.575Z,2.13
2022-08-04T13:38:50.335Z,2.03
2022-08-04T13:41:19.595Z,2.20
2022-08-04T13:44:18.474Z,2.20
2022-08-04T13:46:39.954Z,1.93
2022-08-04T13:49:31.237Z,1.80
2022-08-04T13:52:10.979Z,2.17
2022-08-04T13:54:42.457Z,2.40
2022-08-04T13:57:13.272Z,2.30
2022-08-04T13:59:45.900Z,2.30
2022-08-04T14:02:22.484Z,2.33
2022-08-04T14:04:54.246Z,2.10
2022-08-04T14:07:26.940Z,2.10
2022-08-04T14:10:02.788Z,2.23
2022-08-04T14:12:45.315Z,2.20
2022-08-04T14:16:01.823Z,2.23
2022-08-04T14:18:28.141Z,2.50
2022-08-04T14:21:05.551Z,2.67
2022-08-04T14:23:47.689Z,2.33
2022-08-04T14:26:21.469Z,2.57
2022-08-04T14:29:28.440Z,2.23
2022-08-04T14:32:02.061Z,2.30
2022-08-04T14:34:33.527Z,2.70
2022-08-04T14:37:17.143Z,2.63
2022-08-04T14:40:18.834Z,2.20
2022-08-04T14:42:43.863Z,2.47
2022-08-04T14:45:13.037Z,2.20
2022-08-04T14:47:52.283Z,2.20
2022-08-04T14:50:21.799Z,2.73
2022-08-04T14:52:50.038Z,2.33
2022-08-04T14:55:20.780Z,2.30
2022-08-04T14:58:32.880Z,2.47
2022-08-04T15:00:38.488Z,2.37
2022-08-04T15:03:09.036Z,2.50
2022-08-04T15:06:00.437Z,2.20
2022-08-04T15:08:29.189Z,2.67
2022-08-04T15:11:03.167Z,2.53
2022-08-04T15:13:31.995Z,2.80
2022-08-04T15:16:06.165Z,2.30
2022-08-04T15:18:36.968Z,2.30
2022-08-04T15:21:05.728Z,2.90
2022-08-04T15:23:39.179Z,2.80
2022-08-04T15:26:10.805Z,2.60
2022-08-04T15:28:40.534Z,2.30
2022-08-04T15:31:10.595Z,2.60
2022-08-04T15:33:58.578Z,2.40
2022-08-04T15:36:33.214Z,2.73
2022-08-04T15:39:06.938Z,2.53
2022-08-04T15:41:38.204Z,2.43
2022-08-04T15:44:23.254Z,2.77
2022-08-04T15:47:14.494Z,2.73
2022-08-04T15:49:43.885Z,2.80
2022-08-04T15:52:13.591Z,2.80
2022-08-04T15:54:42.592Z,2.20
2022-08-04T15:57:42.745Z,2.67
2022-08-04T16:00:15.046Z,2.90
2022-08-04T16:02:44.525Z,2.80
2022-08-04T16:05:33.521Z,3.10
2022-08-04T16:08:04.582Z,2.80
2022-08-04T16:10:42.751Z,2.57
2022-08-04T16:13:14.436Z,2.57
2022-08-04T16:15:44.402Z,2.90
2022-08-04T16:18:26.682Z,2.83
2022-08-04T16:20:57.056Z,2.90
2022-08-04T16:23:53.662Z,2.63
2022-08-04T16:26:45.107Z,3.00
2022-08-04T16:29:32.187Z,2.10
2022-08-04T16:32:11.963Z,2.10
2022-08-04T16:34:48.871Z,3.13
2022-08-04T16:37:19.339Z,7.40
2022-08-04T16:39:49.710Z,7.43
2022-08-04T16:42:34.850Z,4.73
2022-08-04T16:45:04.376Z,3.47
2022-08-04T16:47:52.823Z,3.03
2022-08-04T16:50:24.345Z,2.43
2022-08-04T16:52:54.031Z,2.90
2022-08-04T16:55:23.410Z,2.37
2022-08-04T16:57:52.412Z,2.33
2022-08-04T17:00:29.122Z,2.50
2022-08-04T17:02:57.524Z,2.77
2022-08-04T17:05:38.347Z,2.60
2022-08-04T17:10:57.488Z,5.20
2022-08-04T17:14:02.758Z,2.93
2022-08-04T17:16:20.791Z,3.00
2022-08-04T17:18:49.722Z,3.37
2022-08-04T17:21:22.122Z,3.47
2022-08-04T17:24:16.593Z,2.77
2022-08-04T17:30:02.026Z,3.53
2022-08-04T17:32:31.604Z,3.87
2022-08-04T18:55:57.142Z,3.63
2022-08-04T18:58:27.298Z,4.63
2022-08-04T19:01:00.416Z,3.67
2022-08-04T19:03:30.568Z,3.40
2022-08-04T19:05:59.643Z,4.00
2022-08-04T19:08:34.878Z,3.40
2022-08-04T19:13:59.684Z,3.23
2022-08-04T19:24:27.808Z,2.93
2022-08-04T19:26:04.961Z,2.70
2022-08-04T19:28:37.905Z,2.90
2022-08-04T19:31:06.675Z,3.77
2022-08-04T19:33:58.752Z,3.30
2022-08-04T19:36:27.890Z,2.70
2022-08-04T19:38:57.263Z,2.70
2022-08-04T19:41:26.761Z,2.80
2022-08-04T19:43:56.884Z,2.77
2022-08-04T19:46:27.798Z,2.80
2022-08-04T19:48:59.114Z,2.87
2022-08-04T19:51:28.804Z,3.10
2022-08-04T19:54:04.028Z,3.00
2022-08-04T19:56:40.694Z,3.83
2022-08-04T19:59:11.102Z,3.23
2022-08-04T20:04:27.621Z,3.07
2022-08-04T20:07:00.667Z,3.10
2022-08-04T20:09:29.153Z,3.13
2022-08-04T20:12:06.031Z,2.90
2022-08-04T20:14:35.583Z,3.10
2022-08-04T20:17:09.762Z,3.17
2022-08-04T20:19:39.211Z,3.03
2022-08-04T20:22:50.945Z,2.83
2022-08-04T20:25:10.913Z,3.10
2022-08-04T20:27:59.740Z,2.80
2022-08-04T20:30:31.017Z,2.70
2022-08-04T20:33:00.757Z,2.73
2022-08-04T20:35:29.472Z,3.00
2022-08-04T20:38:01.341Z,3.00
2022-08-04T20:40:30.330Z,3.27
2022-08-04T20:42:58.816Z,2.80
2022-08-04T20:45:55.865Z,3.27
2022-08-04T20:48:16.841Z,3.43
2022-08-04T20:50:46.325Z,3.30
2022-08-04T20:53:17.022Z,3.30
2022-08-04T20:55:55.467Z,3.50
2022-08-04T20:58:27.325Z,2.80
2022-08-04T21:00:57.205Z,3.10
2022-08-04T21:03:49.647Z,3.30
2022-08-04T21:06:15.717Z,2.90
2022-08-04T21:08:57.356Z,3.00
2022-08-04T21:11:32.586Z,3.40
2022-08-04T21:14:01.277Z,3.20
2022-08-04T21:19:24.390Z,3.10
2022-08-04T21:21:53.333Z,2.77
2022-08-04T21:24:24.009Z,3.27
2022-08-04T21:29:43.850Z,2.97
2022-08-04T21:32:14.387Z,2.73
2022-08-04T21:34:43.937Z,2.80
2022-08-04T21:37:22.309Z,2.93
2022-08-04T21:40:15.418Z,3.10
2022-08-04T21:42:50.066Z,3.07
2022-08-04T21:45:22.006Z,2.90
2022-08-04T21:47:50.939Z,3.20
2022-08-04T21:50:20.721Z,3.10
2022-08-04T21:52:49.835Z,3.30
2022-08-04T21:55:18.910Z,3.43
2022-08-04T21:57:49.345Z,3.33
2022-08-04T22:00:19.698Z,3.30
2022-08-04T22:02:53.358Z,3.00
2022-08-04T22:05:23.653Z,3.20
2022-08-04T22:07:52.891Z,3.00
2022-08-04T22:10:32.794Z,3.63
2022-08-04T22:13:07.008Z,3.40
2022-08-04T22:16:03.701Z,3.30
2022-08-04T22:18:27.292Z,3.43
2022-08-04T22:21:00.378Z,3.53
2022-08-04T22:23:28.647Z,3.30
2022-08-04T22:25:58.286Z,3.50
2022-08-04T22:28:28.559Z,3.40
2022-08-04T22:30:57.199Z,3.43
2022-08-04T22:33:54.558Z,3.50
2022-08-04T22:36:18.007Z,3.43
2022-08-04T22:38:49.995Z,3.30
2022-08-04T22:41:21.452Z,3.50
2022-08-04T22:44:03.335Z,4.17
2022-08-04T22:46:31.788Z,4.20
2022-08-04T22:49:00.037Z,3.67
2022-08-04T22:51:29.656Z,3.70
2022-08-04T22:54:00.119Z,4.70
2022-08-04T22:56:38.421Z,3.73
2022-08-04T22:59:11.122Z,3.70
2022-08-04T23:01:59.778Z,4.30
2022-08-04T23:04:28.566Z,3.23
2022-08-04T23:06:58.177Z,3.47
2022-08-04T23:09:49.589Z,3.60
2022-08-04T23:12:29.815Z,3.70
2022-08-04T23:14:58.768Z,3.50
2022-08-04T23:17:28.180Z,3.80
2022-08-04T23:19:57.631Z,3.57
2022-08-04T23:22:42.236Z,4.20
2022-08-04T23:25:15.736Z,3.87
2022-08-04T23:27:51.201Z,4.10
2022-08-04T23:30:21.948Z,3.90
2022-08-04T23:32:53.488Z,3.93
2022-08-04T23:35:21.993Z,4.53
2022-08-04T23:37:56.612Z,4.00
2022-08-04T23:40:32.678Z,5.03
2022-08-04T23:43:17.095Z,4.27
2022-08-04T23:46:07.071Z,4.60
2022-08-04T23:48:34.462Z,4.00
2022-08-04T23:51:14.568Z,4.83
2022-08-04T23:54:02.370Z,3.83
2022-08-04T23:56:32.304Z,4.33
2022-08-04T23:59:03.718Z,4.20
